sensor_id;sensor_type;location;lat;lon;timestamp;pressure;altitude;pressure_sealevel;temperature;humidity
9335;BME280;4706;41.844;26.082;2023-05-10T00:02:25;101275.25;;;13.48;69.19
9335;BME280;4706;41.844;26.082;2023-05-10T00:04:50;101274.56;;;13.24;70.71
9335;BME280;4706;41.844;26.082;2023-05-10T00:07:16;101265.50;;;13.37;70.01
9335;BME280;4706;41.844;26.082;2023-05-10T00:09:43;101270.59;;;13.63;69.45
9335;BME280;4706;41.844;26.082;2023-05-10T00:12:08;101272.25;;;13.77;68.11
9335;BME280;4706;41.844;26.082;2023-05-10T00:14:34;101263.16;;;13.77;68.26
9335;BME280;4706;41.844;26.082;2023-05-10T00:16:59;101267.66;;;13.73;68.07
9335;BME280;4706;41.844;26.082;2023-05-10T00:19:25;101265.81;;;13.82;67.63
9335;BME280;4706;41.844;26.082;2023-05-10T00:21:50;101263.34;;;13.80;67.68
9335;BME280;4706;41.844;26.082;2023-05-10T00:24:16;101264.66;;;13.69;67.78
9335;BME280;4706;41.844;26.082;2023-05-10T00:26:41;101250.13;;;13.64;67.92
9335;BME280;4706;41.844;26.082;2023-05-10T00:29:07;101261.75;;;13.47;68.82
9335;BME280;4706;41.844;26.082;2023-05-10T00:31:33;101258.28;;;13.55;68.82
9335;BME280;4706;41.844;26.082;2023-05-10T00:33:58;101256.13;;;13.52;68.53
9335;BME280;4706;41.844;26.082;2023-05-10T00:36:24;101255.59;;;13.50;68.95
9335;BME280;4706;41.844;26.082;2023-05-10T00:38:49;101264.00;;;13.45;69.11
9335;BME280;4706;41.844;26.082;2023-05-10T00:41:15;101268.44;;;13.59;68.50
9335;BME280;4706;41.844;26.082;2023-05-10T00:43:41;101271.44;;;13.77;68.17
9335;BME280;4706;41.844;26.082;2023-05-10T00:46:07;101268.03;;;13.80;68.36
9335;BME280;4706;41.844;26.082;2023-05-10T00:48:32;101274.53;;;13.89;67.53
9335;BME280;4706;41.844;26.082;2023-05-10T00:50:58;101270.34;;;13.92;67.50
9335;BME280;4706;41.844;26.082;2023-05-10T00:53:24;101260.38;;;13.91;67.00
9335;BME280;4706;41.844;26.082;2023-05-10T00:55:50;101264.59;;;14.02;66.56
9335;BME280;4706;41.844;26.082;2023-05-10T00:58:16;101263.25;;;13.85;67.08
9335;BME280;4706;41.844;26.082;2023-05-10T01:00:42;101250.84;;;13.69;67.81
9335;BME280;4706;41.844;26.082;2023-05-10T01:03:11;101251.66;;;13.70;67.96
9335;BME280;4706;41.844;26.082;2023-05-10T01:05:37;101254.66;;;13.73;67.99
9335;BME280;4706;41.844;26.082;2023-05-10T01:08:03;101258.50;;;13.72;67.80
9335;BME280;4706;41.844;26.082;2023-05-10T01:10:29;101254.88;;;13.44;69.16
9335;BME280;4706;41.844;26.082;2023-05-10T01:12:55;101257.00;;;13.33;70.00
9335;BME280;4706;41.844;26.082;2023-05-10T01:15:21;101257.59;;;13.63;69.40
9335;BME280;4706;41.844;26.082;2023-05-10T01:17:48;101254.84;;;13.77;69.23
9335;BME280;4706;41.844;26.082;2023-05-10T01:20:14;101264.38;;;13.98;68.54
9335;BME280;4706;41.844;26.082;2023-05-10T01:31:03;101252.53;;;14.48;66.98
9335;BME280;4706;41.844;26.082;2023-05-10T01:33:56;101243.31;;;14.66;66.79
9335;BME280;4706;41.844;26.082;2023-05-10T01:36:32;101253.97;;;14.73;65.96
9335;BME280;4706;41.844;26.082;2023-05-10T01:39:17;101257.09;;;14.57;67.28
9335;BME280;4706;41.844;26.082;2023-05-10T01:41:51;101254.44;;;14.52;67.56
9335;BME280;4706;41.844;26.082;2023-05-10T01:44:31;101256.66;;;14.64;67.02
9335;BME280;4706;41.844;26.082;2023-05-10T01:47:05;101254.09;;;14.68;66.91
9335;BME280;4706;41.844;26.082;2023-05-10T01:49:36;101251.19;;;14.73;66.92
9335;BME280;4706;41.844;26.082;2023-05-10T01:52:11;101247.00;;;14.75;67.21
9335;BME280;4706;41.844;26.082;2023-05-10T01:54:41;101252.72;;;14.79;67.05
9335;BME280;4706;41.844;26.082;2023-05-10T01:57:09;101241.66;;;14.79;66.81
9335;BME280;4706;41.844;26.082;2023-05-10T01:59:39;101240.50;;;14.80;66.41
9335;BME280;4706;41.844;26.082;2023-05-10T02:02:08;101250.16;;;14.82;66.27
9335;BME280;4706;41.844;26.082;2023-05-10T02:04:38;101252.78;;;14.88;66.09
9335;BME280;4706;41.844;26.082;2023-05-10T02:07:05;101248.50;;;14.81;65.69
9335;BME280;4706;41.844;26.082;2023-05-10T02:09:33;101251.25;;;14.81;66.12
9335;BME280;4706;41.844;26.082;2023-05-10T02:12:01;101250.03;;;14.88;66.14
9335;BME280;4706;41.844;26.082;2023-05-10T02:14:29;101256.81;;;14.81;66.39
9335;BME280;4706;41.844;26.082;2023-05-10T02:16:56;101245.72;;;14.81;66.69
9335;BME280;4706;41.844;26.082;2023-05-10T02:19:24;101250.44;;;14.81;66.52
9335;BME280;4706;41.844;26.082;2023-05-10T02:21:51;101244.63;;;14.82;66.57
9335;BME280;4706;41.844;26.082;2023-05-10T02:24:17;101244.03;;;14.72;66.78
9335;BME280;4706;41.844;26.082;2023-05-10T02:26:45;101244.31;;;14.70;66.85
9335;BME280;4706;41.844;26.082;2023-05-10T02:29:13;101240.13;;;14.73;66.68
9335;BME280;4706;41.844;26.082;2023-05-10T02:31:39;101239.81;;;14.74;66.93
9335;BME280;4706;41.844;26.082;2023-05-10T02:34:09;101243.84;;;14.68;67.19
9335;BME280;4706;41.844;26.082;2023-05-10T02:36:37;101250.91;;;14.74;67.23
9335;BME280;4706;41.844;26.082;2023-05-10T02:39:03;101245.53;;;14.78;67.05
9335;BME280;4706;41.844;26.082;2023-05-10T02:41:32;101250.91;;;14.74;67.09
9335;BME280;4706;41.844;26.082;2023-05-10T02:43:59;101238.50;;;14.72;66.62
9335;BME280;4706;41.844;26.082;2023-05-10T02:46:26;101245.78;;;14.68;66.93
9335;BME280;4706;41.844;26.082;2023-05-10T02:48:52;101243.31;;;14.66;67.46
9335;BME280;4706;41.844;26.082;2023-05-10T02:51:18;101246.88;;;14.67;67.33
9335;BME280;4706;41.844;26.082;2023-05-10T02:53:46;101244.38;;;14.56;67.71
9335;BME280;4706;41.844;26.082;2023-05-10T02:56:24;101240.88;;;14.51;67.57
9335;BME280;4706;41.844;26.082;2023-05-10T02:58:51;101243.66;;;14.51;67.55
9335;BME280;4706;41.844;26.082;2023-05-10T03:01:17;101250.22;;;14.55;67.82
9335;BME280;4706;41.844;26.082;2023-05-10T03:03:42;101251.88;;;14.56;67.84
9335;BME280;4706;41.844;26.082;2023-05-10T03:06:08;101254.63;;;14.56;67.73
9335;BME280;4706;41.844;26.082;2023-05-10T03:08:34;101244.25;;;14.48;67.75
9335;BME280;4706;41.844;26.082;2023-05-10T03:13:36;101256.44;;;14.47;68.17
9335;BME280;4706;41.844;26.082;2023-05-10T03:16:11;101250.84;;;14.38;68.26
9335;BME280;4706;41.844;26.082;2023-05-10T03:21:22;101260.97;;;14.43;68.14
9335;BME280;4706;41.844;26.082;2023-05-10T03:23:59;101249.50;;;14.36;68.14
9335;BME280;4706;41.844;26.082;2023-05-10T03:26:28;101263.94;;;14.46;68.11
9335;BME280;4706;41.844;26.082;2023-05-10T03:28:54;101259.13;;;14.38;68.65
9335;BME280;4706;41.844;26.082;2023-05-10T03:31:20;101264.47;;;14.48;67.88
9335;BME280;4706;41.844;26.082;2023-05-10T03:33:50;101271.09;;;14.47;68.15
9335;BME280;4706;41.844;26.082;2023-05-10T03:36:16;101263.53;;;14.39;68.30
9335;BME280;4706;41.844;26.082;2023-05-10T03:38:41;101259.75;;;14.21;68.98
9335;BME280;4706;41.844;26.082;2023-05-10T03:41:07;101260.78;;;14.25;68.97
9335;BME280;4706;41.844;26.082;2023-05-10T03:43:32;101263.34;;;14.36;68.48
9335;BME280;4706;41.844;26.082;2023-05-10T03:45:58;101266.84;;;14.27;68.92
9335;BME280;4706;41.844;26.082;2023-05-10T03:48:23;101261.41;;;14.22;69.49
9335;BME280;4706;41.844;26.082;2023-05-10T03:50:49;101266.94;;;14.22;69.42
9335;BME280;4706;41.844;26.082;2023-05-10T03:53:15;101256.91;;;14.26;69.61
9335;BME280;4706;41.844;26.082;2023-05-10T03:55:40;101264.97;;;14.37;69.34
9335;BME280;4706;41.844;26.082;2023-05-10T03:58:06;101275.53;;;14.48;69.28
9335;BME280;4706;41.844;26.082;2023-05-10T04:00:31;101272.16;;;14.51;69.31
9335;BME280;4706;41.844;26.082;2023-05-10T04:02:58;101281.50;;;14.55;69.40
9335;BME280;4706;41.844;26.082;2023-05-10T04:05:23;101281.78;;;14.54;69.84
9335;BME280;4706;41.844;26.082;2023-05-10T04:07:49;101281.25;;;14.66;69.92
9335;BME280;4706;41.844;26.082;2023-05-10T04:10:15;101282.19;;;14.75;69.38
9335;BME280;4706;41.844;26.082;2023-05-10T04:12:41;101282.25;;;14.84;69.25
9335;BME280;4706;41.844;26.082;2023-05-10T04:15:07;101289.63;;;14.88;69.00
9335;BME280;4706;41.844;26.082;2023-05-10T04:17:33;101290.13;;;14.90;69.08
9335;BME280;4706;41.844;26.082;2023-05-10T04:19:59;101286.41;;;14.95;68.80
9335;BME280;4706;41.844;26.082;2023-05-10T04:22:24;101291.53;;;15.01;68.91
9335;BME280;4706;41.844;26.082;2023-05-10T04:24:50;101286.75;;;15.16;68.45
9335;BME280;4706;41.844;26.082;2023-05-10T04:27:15;101288.16;;;15.04;68.77
9335;BME280;4706;41.844;26.082;2023-05-10T04:29:41;101284.47;;;15.18;68.82
9335;BME280;4706;41.844;26.082;2023-05-10T04:32:07;101282.22;;;15.20;68.70
9335;BME280;4706;41.844;26.082;2023-05-10T04:34:33;101280.50;;;15.33;68.59
9335;BME280;4706;41.844;26.082;2023-05-10T04:36:59;101281.03;;;15.35;68.61
9335;BME280;4706;41.844;26.082;2023-05-10T04:39:25;101268.25;;;15.25;68.37
9335;BME280;4706;41.844;26.082;2023-05-10T04:41:50;101274.66;;;15.34;67.85
9335;BME280;4706;41.844;26.082;2023-05-10T04:44:16;101270.44;;;15.37;67.68
9335;BME280;4706;41.844;26.082;2023-05-10T04:46:41;101269.56;;;15.50;66.72
9335;BME280;4706;41.844;26.082;2023-05-10T04:49:07;101264.63;;;15.47;66.59
9335;BME280;4706;41.844;26.082;2023-05-10T04:51:32;101278.25;;;15.35;66.46
9335;BME280;4706;41.844;26.082;2023-05-10T04:53:58;101280.50;;;15.33;66.51
9335;BME280;4706;41.844;26.082;2023-05-10T04:56:24;101275.84;;;15.42;66.19
9335;BME280;4706;41.844;26.082;2023-05-10T04:58:49;101270.19;;;15.47;65.33
9335;BME280;4706;41.844;26.082;2023-05-10T05:01:15;101275.75;;;15.55;64.98
9335;BME280;4706;41.844;26.082;2023-05-10T05:03:40;101274.44;;;15.53;65.01
9335;BME280;4706;41.844;26.082;2023-05-10T05:06:06;101276.91;;;15.54;64.75
9335;BME280;4706;41.844;26.082;2023-05-10T05:08:32;101275.81;;;15.64;64.05
9335;BME280;4706;41.844;26.082;2023-05-10T05:10:57;101277.50;;;15.65;64.44
9335;BME280;4706;41.844;26.082;2023-05-10T05:13:23;101279.03;;;15.80;63.77
9335;BME280;4706;41.844;26.082;2023-05-10T05:15:48;101283.63;;;15.85;63.30
9335;BME280;4706;41.844;26.082;2023-05-10T05:18:13;101278.72;;;15.82;63.74
9335;BME280;4706;41.844;26.082;2023-05-10T05:20:39;101277.63;;;15.91;63.18
9335;BME280;4706;41.844;26.082;2023-05-10T05:23:05;101265.38;;;15.92;62.54
9335;BME280;4706;41.844;26.082;2023-05-10T05:25:30;101283.53;;;15.98;62.19
9335;BME280;4706;41.844;26.082;2023-05-10T05:27:56;101285.97;;;16.00;62.11
9335;BME280;4706;41.844;26.082;2023-05-10T05:30:21;101285.56;;;16.15;61.68
9335;BME280;4706;41.844;26.082;2023-05-10T05:32:47;101290.22;;;15.66;61.45
9335;BME280;4706;41.844;26.082;2023-05-10T05:35:12;101289.59;;;15.69;61.33
9335;BME280;4706;41.844;26.082;2023-05-10T05:37:38;101295.00;;;15.52;61.97
9335;BME280;4706;41.844;26.082;2023-05-10T05:40:04;101292.41;;;15.55;60.68
9335;BME280;4706;41.844;26.082;2023-05-10T05:42:30;101295.81;;;15.52;59.29
9335;BME280;4706;41.844;26.082;2023-05-10T05:44:56;101295.38;;;15.37;59.71
9335;BME280;4706;41.844;26.082;2023-05-10T05:47:22;101293.81;;;15.22;59.79
9335;BME280;4706;41.844;26.082;2023-05-10T05:49:47;101301.50;;;15.25;60.08
9335;BME280;4706;41.844;26.082;2023-05-10T05:52:13;101305.38;;;15.01;60.86
9335;BME280;4706;41.844;26.082;2023-05-10T05:54:38;101305.63;;;14.77;61.51
9335;BME280;4706;41.844;26.082;2023-05-10T05:57:04;101301.06;;;14.59;61.38
9335;BME280;4706;41.844;26.082;2023-05-10T05:59:29;101303.50;;;14.74;61.79
9335;BME280;4706;41.844;26.082;2023-05-10T06:01:55;101297.38;;;14.50;62.53
9335;BME280;4706;41.844;26.082;2023-05-10T06:04:21;101303.94;;;14.68;62.52
9335;BME280;4706;41.844;26.082;2023-05-10T06:06:46;101304.94;;;14.72;61.68
9335;BME280;4706;41.844;26.082;2023-05-10T06:09:12;101308.13;;;14.65;61.64
9335;BME280;4706;41.844;26.082;2023-05-10T06:11:37;101307.84;;;14.53;62.29
9335;BME280;4706;41.844;26.082;2023-05-10T06:14:03;101318.00;;;14.57;62.29
9335;BME280;4706;41.844;26.082;2023-05-10T06:16:30;101313.06;;;14.54;63.14
9335;BME280;4706;41.844;26.082;2023-05-10T06:18:55;101306.41;;;14.55;64.24
9335;BME280;4706;41.844;26.082;2023-05-10T06:21:21;101307.94;;;14.62;64.17
9335;BME280;4706;41.844;26.082;2023-05-10T06:23:47;101315.09;;;14.76;63.33
9335;BME280;4706;41.844;26.082;2023-05-10T06:26:13;101313.22;;;14.86;63.97
9335;BME280;4706;41.844;26.082;2023-05-10T06:28:39;101315.31;;;15.02;62.64
9335;BME280;4706;41.844;26.082;2023-05-10T06:31:05;101317.50;;;15.28;61.44
9335;BME280;4706;41.844;26.082;2023-05-10T06:33:32;101318.75;;;15.44;60.10
9335;BME280;4706;41.844;26.082;2023-05-10T06:35:58;101318.44;;;15.23;60.32
9335;BME280;4706;41.844;26.082;2023-05-10T06:38:23;101327.63;;;15.33;59.64
9335;BME280;4706;41.844;26.082;2023-05-10T06:40:49;101311.69;;;15.38;58.33
9335;BME280;4706;41.844;26.082;2023-05-10T06:43:15;101318.19;;;15.34;58.85
9335;BME280;4706;41.844;26.082;2023-05-10T06:45:40;101323.28;;;15.40;58.70
9335;BME280;4706;41.844;26.082;2023-05-10T06:48:06;101320.38;;;15.45;58.59
9335;BME280;4706;41.844;26.082;2023-05-10T06:50:32;101326.63;;;15.28;58.99
9335;BME280;4706;41.844;26.082;2023-05-10T06:52:58;101325.88;;;15.37;58.82
9335;BME280;4706;41.844;26.082;2023-05-10T06:55:24;101328.22;;;15.43;58.24
9335;BME280;4706;41.844;26.082;2023-05-10T06:57:50;101311.53;;;15.35;57.98
9335;BME280;4706;41.844;26.082;2023-05-10T07:00:16;101313.44;;;15.34;57.09
9335;BME280;4706;41.844;26.082;2023-05-10T07:02:42;101326.00;;;15.32;58.26
9335;BME280;4706;41.844;26.082;2023-05-10T07:05:08;101315.16;;;14.85;60.05
9335;BME280;4706;41.844;26.082;2023-05-10T07:07:33;101308.50;;;14.86;60.06
9335;BME280;4706;41.844;26.082;2023-05-10T07:09:59;101301.16;;;15.04;59.95
9335;BME280;4706;41.844;26.082;2023-05-10T07:12:25;101310.31;;;15.27;58.89
9335;BME280;4706;41.844;26.082;2023-05-10T07:14:50;101307.66;;;15.22;59.33
9335;BME280;4706;41.844;26.082;2023-05-10T07:17:16;101309.75;;;15.61;57.66
9335;BME280;4706;41.844;26.082;2023-05-10T07:19:41;101314.03;;;15.67;56.49
9335;BME280;4706;41.844;26.082;2023-05-10T07:22:07;101303.66;;;15.73;54.73
9335;BME280;4706;41.844;26.082;2023-05-10T07:24:33;101313.16;;;15.81;56.14
9335;BME280;4706;41.844;26.082;2023-05-10T07:26:59;101313.81;;;15.64;56.42
9335;BME280;4706;41.844;26.082;2023-05-10T07:29:24;101317.97;;;15.52;55.38
9335;BME280;4706;41.844;26.082;2023-05-10T07:31:50;101322.34;;;15.67;55.88
9335;BME280;4706;41.844;26.082;2023-05-10T07:34:16;101303.66;;;15.73;56.27
9335;BME280;4706;41.844;26.082;2023-05-10T07:36:41;101314.97;;;15.63;56.05
9335;BME280;4706;41.844;26.082;2023-05-10T07:39:07;101314.78;;;15.59;56.24
9335;BME280;4706;41.844;26.082;2023-05-10T07:41:32;101323.34;;;15.49;56.61
9335;BME280;4706;41.844;26.082;2023-05-10T07:43:58;101322.22;;;15.50;57.02
9335;BME280;4706;41.844;26.082;2023-05-10T07:46:23;101326.06;;;15.63;56.65
9335;BME280;4706;41.844;26.082;2023-05-10T07:48:49;101313.91;;;15.72;55.99
9335;BME280;4706;41.844;26.082;2023-05-10T07:51:14;101310.84;;;15.83;56.04
9335;BME280;4706;41.844;26.082;2023-05-10T07:53:40;101320.44;;;15.99;55.59
9335;BME280;4706;41.844;26.082;2023-05-10T07:56:22;101326.41;;;16.23;53.88
9335;BME280;4706;41.844;26.082;2023-05-10T07:58:48;101327.47;;;16.54;52.64
9335;BME280;4706;41.844;26.082;2023-05-10T08:01:14;101323.34;;;16.42;52.79
9335;BME280;4706;41.844;26.082;2023-05-10T08:03:39;101325.03;;;16.61;52.04
9335;BME280;4706;41.844;26.082;2023-05-10T08:06:05;101317.34;;;16.58;52.45
9335;BME280;4706;41.844;26.082;2023-05-10T08:08:31;101314.56;;;16.58;52.46
9335;BME280;4706;41.844;26.082;2023-05-10T08:10:56;101311.78;;;16.58;53.06
9335;BME280;4706;41.844;26.082;2023-05-10T08:13:22;101296.94;;;16.62;53.42
9335;BME280;4706;41.844;26.082;2023-05-10T08:15:47;101313.88;;;17.01;53.27
9335;BME280;4706;41.844;26.082;2023-05-10T08:18:13;101324.00;;;17.05;52.33
9335;BME280;4706;41.844;26.082;2023-05-10T08:20:38;101319.72;;;16.82;52.50
9335;BME280;4706;41.844;26.082;2023-05-10T08:23:05;101310.34;;;16.51;53.56
9335;BME280;4706;41.844;26.082;2023-05-10T08:25:31;101315.50;;;16.36;52.91
9335;BME280;4706;41.844;26.082;2023-05-10T08:27:56;101333.94;;;16.32;53.60
9335;BME280;4706;41.844;26.082;2023-05-10T08:30:22;101340.53;;;16.44;54.68
9335;BME280;4706;41.844;26.082;2023-05-10T08:32:47;101339.38;;;16.45;53.63
9335;BME280;4706;41.844;26.082;2023-05-10T08:35:13;101350.47;;;16.45;53.36
9335;BME280;4706;41.844;26.082;2023-05-10T08:37:38;101337.66;;;16.67;53.99
9335;BME280;4706;41.844;26.082;2023-05-10T08:40:04;101340.00;;;16.99;51.99
9335;BME280;4706;41.844;26.082;2023-05-10T08:42:33;101343.13;;;16.89;51.31
9335;BME280;4706;41.844;26.082;2023-05-10T08:45:02;101344.25;;;16.88;51.85
9335;BME280;4706;41.844;26.082;2023-05-10T08:47:29;101337.13;;;16.47;52.15
9335;BME280;4706;41.844;26.082;2023-05-10T08:49:55;101330.44;;;16.57;52.62
9335;BME280;4706;41.844;26.082;2023-05-10T08:52:21;101338.84;;;16.83;52.78
9335;BME280;4706;41.844;26.082;2023-05-10T08:54:49;101330.19;;;16.85;53.24
9335;BME280;4706;41.844;26.082;2023-05-10T08:57:15;101346.41;;;17.09;50.27
9335;BME280;4706;41.844;26.082;2023-05-10T08:59:41;101343.63;;;17.00;48.98
9335;BME280;4706;41.844;26.082;2023-05-10T09:02:09;101345.41;;;17.05;50.38
9335;BME280;4706;41.844;26.082;2023-05-10T09:04:35;101349.34;;;17.21;51.16
9335;BME280;4706;41.844;26.082;2023-05-10T09:07:01;101343.63;;;17.43;50.20
9335;BME280;4706;41.844;26.082;2023-05-10T09:09:27;101342.97;;;17.46;50.59
9335;BME280;4706;41.844;26.082;2023-05-10T09:11:53;101344.59;;;17.47;49.44
9335;BME280;4706;41.844;26.082;2023-05-10T09:14:19;101343.94;;;17.51;49.06
9335;BME280;4706;41.844;26.082;2023-05-10T09:16:45;101348.03;;;17.36;48.69
9335;BME280;4706;41.844;26.082;2023-05-10T09:19:11;101343.28;;;17.36;49.57
9335;BME280;4706;41.844;26.082;2023-05-10T09:21:37;101334.81;;;17.41;48.95
9335;BME280;4706;41.844;26.082;2023-05-10T09:24:07;101338.72;;;17.06;49.93
9335;BME280;4706;41.844;26.082;2023-05-10T09:26:33;101354.56;;;17.14;51.50
9335;BME280;4706;41.844;26.082;2023-05-10T09:29:00;101336.13;;;17.27;51.65
9335;BME280;4706;41.844;26.082;2023-05-10T09:31:46;101337.38;;;17.55;50.00
9335;BME280;4706;41.844;26.082;2023-05-10T09:34:19;101338.84;;;17.61;49.97
9335;BME280;4706;41.844;26.082;2023-05-10T09:36:59;101337.53;;;17.59;49.94
9335;BME280;4706;41.844;26.082;2023-05-10T09:39:38;101331.63;;;17.69;48.77
9335;BME280;4706;41.844;26.082;2023-05-10T09:42:06;101322.47;;;17.60;49.16
9335;BME280;4706;41.844;26.082;2023-05-10T09:44:33;101321.53;;;17.47;49.77
9335;BME280;4706;41.844;26.082;2023-05-10T09:47:00;101318.56;;;17.61;50.62
9335;BME280;4706;41.844;26.082;2023-05-10T09:49:26;101319.34;;;17.87;50.41
9335;BME280;4706;41.844;26.082;2023-05-10T09:52:02;101303.44;;;17.96;49.70
9335;BME280;4706;41.844;26.082;2023-05-10T09:54:28;101315.28;;;18.23;49.55
9335;BME280;4706;41.844;26.082;2023-05-10T09:56:54;101319.31;;;18.34;48.72
9335;BME280;4706;41.844;26.082;2023-05-10T09:59:19;101314.34;;;18.49;49.00
9335;BME280;4706;41.844;26.082;2023-05-10T10:01:51;101312.25;;;18.66;48.66
9335;BME280;4706;41.844;26.082;2023-05-10T10:04:17;101308.09;;;18.81;48.01
9335;BME280;4706;41.844;26.082;2023-05-10T10:06:45;101304.16;;;18.82;48.66
9335;BME280;4706;41.844;26.082;2023-05-10T10:09:10;101300.06;;;19.01;47.90
9335;BME280;4706;41.844;26.082;2023-05-10T10:11:37;101287.97;;;18.97;48.00
9335;BME280;4706;41.844;26.082;2023-05-10T10:14:04;101304.16;;;19.03;48.32
9335;BME280;4706;41.844;26.082;2023-05-10T10:16:30;101302.31;;;19.07;48.42
9335;BME280;4706;41.844;26.082;2023-05-10T10:18:56;101302.66;;;19.06;47.95
9335;BME280;4706;41.844;26.082;2023-05-10T10:21:23;101309.94;;;19.19;46.51
9335;BME280;4706;41.844;26.082;2023-05-10T10:23:48;101305.31;;;19.02;47.41
9335;BME280;4706;41.844;26.082;2023-05-10T10:26:15;101301.38;;;19.03;47.28
9335;BME280;4706;41.844;26.082;2023-05-10T10:28:51;101297.38;;;18.92;47.51
9335;BME280;4706;41.844;26.082;2023-05-10T10:31:36;101287.50;;;18.95;47.92
9335;BME280;4706;41.844;26.082;2023-05-10T10:34:21;101292.16;;;19.03;48.39
9335;BME280;4706;41.844;26.082;2023-05-10T10:36:50;101275.56;;;19.06;48.28
9335;BME280;4706;41.844;26.082;2023-05-10T10:39:15;101286.03;;;19.30;48.21
9335;BME280;4706;41.844;26.082;2023-05-10T10:41:55;101282.09;;;19.31;47.72
9335;BME280;4706;41.844;26.082;2023-05-10T10:47:06;101285.06;;;19.59;47.84
9335;BME280;4706;41.844;26.082;2023-05-10T10:57:55;101279.09;;;19.70;47.35
9335;BME280;4706;41.844;26.082;2023-05-10T11:00:26;101275.50;;;19.69;46.73
9335;BME280;4706;41.844;26.082;2023-05-10T11:10:20;101257.81;;;19.65;45.77
9335;BME280;4706;41.844;26.082;2023-05-10T11:15:49;101260.38;;;19.70;45.84
9335;BME280;4706;41.844;26.082;2023-05-10T11:18:20;101247.25;;;19.95;44.01
9335;BME280;4706;41.844;26.082;2023-05-10T11:20:52;101249.00;;;20.12;44.31
9335;BME280;4706;41.844;26.082;2023-05-10T11:23:21;101233.38;;;20.48;44.57
9335;BME280;4706;41.844;26.082;2023-05-10T11:25:48;101247.72;;;20.46;42.17
9335;BME280;4706;41.844;26.082;2023-05-10T11:28:14;101235.94;;;20.41;41.53
9335;BME280;4706;41.844;26.082;2023-05-10T11:30:41;101235.25;;;20.56;41.68
9335;BME280;4706;41.844;26.082;2023-05-10T11:33:07;101234.41;;;20.80;42.19
9335;BME280;4706;41.844;26.082;2023-05-10T11:35:40;101226.41;;;21.22;41.11
9335;BME280;4706;41.844;26.082;2023-05-10T11:38:13;101224.59;;;21.58;40.65
9335;BME280;4706;41.844;26.082;2023-05-10T11:40:40;101224.41;;;21.51;39.65
9335;BME280;4706;41.844;26.082;2023-05-10T11:43:08;101225.22;;;21.23;40.38
9335;BME280;4706;41.844;26.082;2023-05-10T11:45:35;101227.47;;;20.90;41.10
9335;BME280;4706;41.844;26.082;2023-05-10T11:48:01;101223.97;;;20.52;41.79
9335;BME280;4706;41.844;26.082;2023-05-10T11:50:28;101210.69;;;20.37;42.18
9335;BME280;4706;41.844;26.082;2023-05-10T11:52:55;101213.47;;;20.49;42.97
9335;BME280;4706;41.844;26.082;2023-05-10T11:55:21;101214.31;;;20.50;43.01
9335;BME280;4706;41.844;26.082;2023-05-10T11:57:47;101207.66;;;20.42;42.49
9335;BME280;4706;41.844;26.082;2023-05-10T12:00:13;101204.28;;;20.36;42.15
9335;BME280;4706;41.844;26.082;2023-05-10T12:02:39;101204.53;;;20.19;41.17
9335;BME280;4706;41.844;26.082;2023-05-10T12:05:06;101205.09;;;20.37;41.60
9335;BME280;4706;41.844;26.082;2023-05-10T12:07:32;101203.59;;;20.52;42.35
9335;BME280;4706;41.844;26.082;2023-05-10T12:10:04;101199.72;;;20.97;39.57
9335;BME280;4706;41.844;26.082;2023-05-10T12:12:41;101195.09;;;20.89;39.47
9335;BME280;4706;41.844;26.082;2023-05-10T12:15:18;101198.97;;;20.72;40.14
9335;BME280;4706;41.844;26.082;2023-05-10T12:17:45;101209.03;;;20.60;39.86
9335;BME280;4706;41.844;26.082;2023-05-10T12:20:23;101208.50;;;20.18;40.82
9335;BME280;4706;41.844;26.082;2023-05-10T12:22:50;101208.88;;;19.92;40.79
9335;BME280;4706;41.844;26.082;2023-05-10T12:25:17;101201.13;;;19.52;42.07
9335;BME280;4706;41.844;26.082;2023-05-10T12:27:54;101212.50;;;19.47;42.92
9335;BME280;4706;41.844;26.082;2023-05-10T12:30:25;101206.22;;;19.38;43.66
9335;BME280;4706;41.844;26.082;2023-05-10T12:32:52;101196.53;;;18.90;42.89
9335;BME280;4706;41.844;26.082;2023-05-10T12:35:18;101189.53;;;19.17;43.80
9335;BME280;4706;41.844;26.082;2023-05-10T12:37:50;101191.50;;;19.16;44.26
9335;BME280;4706;41.844;26.082;2023-05-10T12:40:16;101183.03;;;19.25;44.12
9335;BME280;4706;41.844;26.082;2023-05-10T12:42:42;101180.88;;;18.98;44.83
9335;BME280;4706;41.844;26.082;2023-05-10T12:45:09;101170.44;;;19.07;44.30
9335;BME280;4706;41.844;26.082;2023-05-10T12:47:34;101175.78;;;19.00;44.22
9335;BME280;4706;41.844;26.082;2023-05-10T12:50:01;101173.28;;;18.86;44.04
9335;BME280;4706;41.844;26.082;2023-05-10T12:52:27;101179.09;;;18.81;44.81
9335;BME280;4706;41.844;26.082;2023-05-10T12:54:53;101168.94;;;19.09;44.78
9335;BME280;4706;41.844;26.082;2023-05-10T12:57:20;101161.19;;;19.15;44.19
9335;BME280;4706;41.844;26.082;2023-05-10T12:59:46;101156.31;;;19.24;44.03
9335;BME280;4706;41.844;26.082;2023-05-10T13:02:12;101145.88;;;19.33;43.74
9335;BME280;4706;41.844;26.082;2023-05-10T13:04:37;101156.47;;;19.40;43.03
9335;BME280;4706;41.844;26.082;2023-05-10T13:07:07;101150.41;;;19.26;43.62
9335;BME280;4706;41.844;26.082;2023-05-10T13:09:33;101146.72;;;19.46;42.24
9335;BME280;4706;41.844;26.082;2023-05-10T13:11:59;101137.72;;;19.28;42.04
9335;BME280;4706;41.844;26.082;2023-05-10T13:14:24;101140.19;;;19.42;41.83
9335;BME280;4706;41.844;26.082;2023-05-10T13:16:50;101134.97;;;19.53;41.31
9335;BME280;4706;41.844;26.082;2023-05-10T13:19:16;101124.16;;;19.51;43.03
9335;BME280;4706;41.844;26.082;2023-05-10T13:21:41;101126.28;;;19.67;41.72
9335;BME280;4706;41.844;26.082;2023-05-10T13:24:07;101133.16;;;19.69;41.80
9335;BME280;4706;41.844;26.082;2023-05-10T13:26:33;101138.50;;;19.62;42.42
9335;BME280;4706;41.844;26.082;2023-05-10T13:28:59;101131.03;;;19.54;42.01
9335;BME280;4706;41.844;26.082;2023-05-10T13:31:24;101128.09;;;19.26;42.34
9335;BME280;4706;41.844;26.082;2023-05-10T13:33:50;101136.25;;;19.43;43.04
9335;BME280;4706;41.844;26.082;2023-05-10T13:36:15;101134.06;;;19.49;41.81